sensor_id;sensor_type;location;lat;lon;timestamp;P1;durP1;ratioP1;P2;durP2;ratioP2
75732;SDS011;64435;47.424;19.400;2022-12-10T00:01:24;37.13;;;18.67;;
75732;SDS011;64435;47.424;19.400;2022-12-10T00:03:50;33.35;;;17.35;;
75732;SDS011;64435;47.424;19.400;2022-12-10T00:06:17;36.53;;;17.57;;
75732;SDS011;64435;47.424;19.400;2022-12-10T00:08:44;34.80;;;17.37;;
75732;SDS011;64435;47.424;19.400;2022-12-10T00:11:10;30.35;;;17.17;;
75732;SDS011;64435;47.424;19.400;2022-12-10T00:13:36;36.00;;;17.80;;
75732;SDS011;64435;47.424;19.400;2022-12-10T00:16:03;35.75;;;18.92;;
75732;SDS011;64435;47.424;19.400;2022-12-10T00:18:30;37.22;;;18.35;;
75732;SDS011;64435;47.424;19.400;2022-12-10T00:20:56;37.93;;;17.77;;
75732;SDS011;64435;47.424;19.400;2022-12-10T00:23:21;35.90;;;17.90;;
75732;SDS011;64435;47.424;19.400;2022-12-10T00:25:47;37.27;;;19.43;;
75732;SDS011;64435;47.424;19.400;2022-12-10T00:28:13;39.13;;;18.42;;
75732;SDS011;64435;47.424;19.400;2022-12-10T00:30:38;36.43;;;18.37;;
75732;SDS011;64435;47.424;19.400;2022-12-10T00:33:04;40.03;;;19.87;;
75732;SDS011;64435;47.424;19.400;2022-12-10T00:35:29;40.27;;;18.93;;
75732;SDS011;64435;47.424;19.400;2022-12-10T00:37:55;38.87;;;18.57;;
75732;SDS011;64435;47.424;19.400;2022-12-10T00:40:21;34.77;;;19.40;;
75732;SDS011;64435;47.424;19.400;2022-12-10T00:42:46;41.03;;;19.30;;
75732;SDS011;64435;47.424;19.400;2022-12-10T00:45:12;36.53;;;18.37;;
75732;SDS011;64435;47.424;19.400;2022-12-10T00:47:37;34.53;;;18.13;;
75732;SDS011;64435;47.424;19.400;2022-12-10T00:50:03;45.87;;;20.03;;
75732;SDS011;64435;47.424;19.400;2022-12-10T00:52:28;47.87;;;17.97;;
75732;SDS011;64435;47.424;19.400;2022-12-10T00:54:54;75.53;;;21.75;;
75732;SDS011;64435;47.424;19.400;2022-12-10T00:57:19;70.77;;;20.47;;
75732;SDS011;64435;47.424;19.400;2022-12-10T00:59:44;44.80;;;19.77;;
75732;SDS011;64435;47.424;19.400;2022-12-10T01:02:10;70.40;;;19.50;;
75732;SDS011;64435;47.424;19.400;2022-12-10T01:04:35;45.70;;;19.33;;
75732;SDS011;64435;47.424;19.400;2022-12-10T01:07:01;55.65;;;18.95;;
75732;SDS011;64435;47.424;19.400;2022-12-10T01:09:27;144.20;;;22.10;;
75732;SDS011;64435;47.424;19.400;2022-12-10T01:11:54;57.05;;;20.67;;
75732;SDS011;64435;47.424;19.400;2022-12-10T01:14:22;79.68;;;21.50;;
75732;SDS011;64435;47.424;19.400;2022-12-10T01:16:57;67.57;;;19.80;;
75732;SDS011;64435;47.424;19.400;2022-12-10T01:19:23;110.10;;;21.87;;
75732;SDS011;64435;47.424;19.400;2022-12-10T01:21:50;105.50;;;22.87;;
75732;SDS011;64435;47.424;19.400;2022-12-10T01:24:19;88.05;;;21.35;;
75732;SDS011;64435;47.424;19.400;2022-12-10T01:26:45;57.10;;;18.83;;
75732;SDS011;64435;47.424;19.400;2022-12-10T01:29:11;108.03;;;20.70;;
75732;SDS011;64435;47.424;19.400;2022-12-10T01:31:37;128.12;;;20.83;;
75732;SDS011;64435;47.424;19.400;2022-12-10T01:34:03;69.20;;;19.45;;
75732;SDS011;64435;47.424;19.400;2022-12-10T01:36:35;160.35;;;22.20;;
75732;SDS011;64435;47.424;19.400;2022-12-10T01:39:03;222.60;;;23.67;;
75732;SDS011;64435;47.424;19.400;2022-12-10T01:41:31;121.68;;;20.12;;
75732;SDS011;64435;47.424;19.400;2022-12-10T01:43:59;116.32;;;19.85;;
75732;SDS011;64435;47.424;19.400;2022-12-10T01:46:51;151.10;;;19.87;;
75732;SDS011;64435;47.424;19.400;2022-12-10T01:49:39;143.10;;;18.98;;
75732;SDS011;64435;47.424;19.400;2022-12-10T01:52:06;156.43;;;18.57;;
75732;SDS011;64435;47.424;19.400;2022-12-10T01:54:34;143.60;;;18.98;;
75732;SDS011;64435;47.424;19.400;2022-12-10T01:57:02;167.50;;;19.98;;
75732;SDS011;64435;47.424;19.400;2022-12-10T01:59:29;115.90;;;16.60;;
75732;SDS011;64435;47.424;19.400;2022-12-10T02:01:58;135.83;;;17.53;;
75732;SDS011;64435;47.424;19.400;2022-12-10T02:09:59;111.15;;;16.85;;
75732;SDS011;64435;47.424;19.400;2022-12-10T02:12:35;86.35;;;16.23;;
75732;SDS011;64435;47.424;19.400;2022-12-10T02:15:06;72.47;;;16.10;;
75732;SDS011;64435;47.424;19.400;2022-12-10T02:17:41;52.33;;;15.77;;
75732;SDS011;64435;47.424;19.400;2022-12-10T02:20:17;38.50;;;15.50;;
75732;SDS011;64435;47.424;19.400;2022-12-10T02:22:46;36.80;;;14.35;;
75732;SDS011;64435;47.424;19.400;2022-12-10T02:25:20;36.15;;;14.82;;
75732;SDS011;64435;47.424;19.400;2022-12-10T02:27:55;43.87;;;14.27;;
75732;SDS011;64435;47.424;19.400;2022-12-10T02:30:27;45.22;;;14.95;;
75732;SDS011;64435;47.424;19.400;2022-12-10T02:32:55;42.08;;;14.27;;
75732;SDS011;64435;47.424;19.400;2022-12-10T02:35:27;46.97;;;14.07;;
75732;SDS011;64435;47.424;19.400;2022-12-10T02:38:03;43.15;;;14.75;;
75732;SDS011;64435;47.424;19.400;2022-12-10T02:40:32;42.70;;;14.43;;
75732;SDS011;64435;47.424;19.400;2022-12-10T02:42:58;48.80;;;14.23;;
75732;SDS011;64435;47.424;19.400;2022-12-10T02:45:25;54.67;;;15.67;;
75732;SDS011;64435;47.424;19.400;2022-12-10T02:47:53;47.78;;;14.02;;
75732;SDS011;64435;47.424;19.400;2022-12-10T02:50:21;45.60;;;13.52;;
75732;SDS011;64435;47.424;19.400;2022-12-10T02:52:47;66.68;;;15.38;;
75732;SDS011;64435;47.424;19.400;2022-12-10T02:55:13;54.20;;;15.60;;
75732;SDS011;64435;47.424;19.400;2022-12-10T03:00:31;68.73;;;15.70;;
75732;SDS011;64435;47.424;19.400;2022-12-10T03:03:17;81.80;;;13.75;;
75732;SDS011;64435;47.424;19.400;2022-12-10T03:05:47;61.20;;;13.98;;
75732;SDS011;64435;47.424;19.400;2022-12-10T03:08:28;58.83;;;12.82;;
75732;SDS011;64435;47.424;19.400;2022-12-10T03:11:03;51.15;;;13.57;;
75732;SDS011;64435;47.424;19.400;2022-12-10T03:14:17;44.17;;;13.47;;
75732;SDS011;64435;47.424;19.400;2022-12-10T03:16:32;39.40;;;13.35;;
75732;SDS011;64435;47.424;19.400;2022-12-10T03:19:02;41.47;;;14.00;;
75732;SDS011;64435;47.424;19.400;2022-12-10T03:21:30;43.70;;;15.48;;
75732;SDS011;64435;47.424;19.400;2022-12-10T03:23:56;34.35;;;14.43;;
75732;SDS011;64435;47.424;19.400;2022-12-10T03:26:22;28.40;;;11.20;;
75732;SDS011;64435;47.424;19.400;2022-12-10T03:28:52;22.52;;;9.88;;
75732;SDS011;64435;47.424;19.400;2022-12-10T03:31:21;25.40;;;11.30;;
75732;SDS011;64435;47.424;19.400;2022-12-10T03:33:47;25.93;;;11.47;;
75732;SDS011;64435;47.424;19.400;2022-12-10T03:36:13;27.75;;;10.77;;
75732;SDS011;64435;47.424;19.400;2022-12-10T03:38:39;26.98;;;11.73;;
75732;SDS011;64435;47.424;19.400;2022-12-10T03:41:05;27.57;;;11.63;;
75732;SDS011;64435;47.424;19.400;2022-12-10T03:43:31;33.50;;;12.00;;
75732;SDS011;64435;47.424;19.400;2022-12-10T03:45:57;25.97;;;10.87;;
75732;SDS011;64435;47.424;19.400;2022-12-10T03:48:22;26.50;;;10.90;;
75732;SDS011;64435;47.424;19.400;2022-12-10T03:50:47;28.13;;;10.53;;
75732;SDS011;64435;47.424;19.400;2022-12-10T03:53:13;19.77;;;9.70;;
75732;SDS011;64435;47.424;19.400;2022-12-10T03:55:38;18.97;;;10.30;;
75732;SDS011;64435;47.424;19.400;2022-12-10T03:58:04;20.80;;;9.55;;
75732;SDS011;64435;47.424;19.400;2022-12-10T04:00:30;20.23;;;9.57;;
75732;SDS011;64435;47.424;19.400;2022-12-10T04:02:55;20.50;;;10.30;;
75732;SDS011;64435;47.424;19.400;2022-12-10T04:05:20;23.27;;;9.60;;
75732;SDS011;64435;47.424;19.400;2022-12-10T04:07:46;26.30;;;10.63;;
75732;SDS011;64435;47.424;19.400;2022-12-10T04:10:11;20.17;;;9.87;;
75732;SDS011;64435;47.424;19.400;2022-12-10T04:12:37;21.60;;;9.85;;
75732;SDS011;64435;47.424;19.400;2022-12-10T04:15:03;18.73;;;9.43;;
75732;SDS011;64435;47.424;19.400;2022-12-10T04:17:48;21.77;;;10.45;;
75732;SDS011;64435;47.424;19.400;2022-12-10T04:20:13;20.37;;;10.30;;
75732;SDS011;64435;47.424;19.400;2022-12-10T04:22:57;17.83;;;9.57;;
75732;SDS011;64435;47.424;19.400;2022-12-10T04:25:41;16.12;;;8.10;;
75732;SDS011;64435;47.424;19.400;2022-12-10T04:28:25;13.32;;;7.53;;
75732;SDS011;64435;47.424;19.400;2022-12-10T04:30:51;15.00;;;7.43;;
75732;SDS011;64435;47.424;19.400;2022-12-10T04:33:16;14.32;;;7.87;;
75732;SDS011;64435;47.424;19.400;2022-12-10T04:35:41;16.07;;;7.70;;
75732;SDS011;64435;47.424;19.400;2022-12-10T04:38:07;15.43;;;7.93;;
75732;SDS011;64435;47.424;19.400;2022-12-10T04:40:32;13.07;;;7.63;;
75732;SDS011;64435;47.424;19.400;2022-12-10T04:42:58;12.30;;;6.67;;
75732;SDS011;64435;47.424;19.400;2022-12-10T04:45:23;13.67;;;6.67;;
75732;SDS011;64435;47.424;19.400;2022-12-10T04:47:48;18.77;;;8.07;;
75732;SDS011;64435;47.424;19.400;2022-12-10T04:50:14;14.97;;;7.50;;
75732;SDS011;64435;47.424;19.400;2022-12-10T04:52:39;14.57;;;7.57;;
75732;SDS011;64435;47.424;19.400;2022-12-10T04:55:05;17.33;;;7.45;;
75732;SDS011;64435;47.424;19.400;2022-12-10T04:57:30;18.20;;;8.27;;
75732;SDS011;64435;47.424;19.400;2022-12-10T04:59:56;15.88;;;8.00;;
75732;SDS011;64435;47.424;19.400;2022-12-10T05:02:21;17.07;;;7.83;;
75732;SDS011;64435;47.424;19.400;2022-12-10T05:04:48;22.77;;;9.17;;
75732;SDS011;64435;47.424;19.400;2022-12-10T05:07:13;18.90;;;9.48;;
75732;SDS011;64435;47.424;19.400;2022-12-10T05:09:39;21.13;;;9.63;;
75732;SDS011;64435;47.424;19.400;2022-12-10T05:12:04;23.17;;;9.87;;
75732;SDS011;64435;47.424;19.400;2022-12-10T05:14:30;20.77;;;9.05;;
75732;SDS011;64435;47.424;19.400;2022-12-10T05:16:55;22.80;;;9.93;;
75732;SDS011;64435;47.424;19.400;2022-12-10T05:19:21;22.63;;;10.47;;
75732;SDS011;64435;47.424;19.400;2022-12-10T05:21:48;22.05;;;9.57;;
75732;SDS011;64435;47.424;19.400;2022-12-10T05:24:32;25.35;;;10.18;;
75732;SDS011;64435;47.424;19.400;2022-12-10T05:26:58;26.63;;;11.53;;
75732;SDS011;64435;47.424;19.400;2022-12-10T05:29:23;21.60;;;11.00;;
75732;SDS011;64435;47.424;19.400;2022-12-10T05:31:48;25.70;;;10.25;;
75732;SDS011;64435;47.424;19.400;2022-12-10T05:34:14;25.10;;;11.50;;
75732;SDS011;64435;47.424;19.400;2022-12-10T05:36:39;22.23;;;10.30;;
75732;SDS011;64435;47.424;19.400;2022-12-10T05:39:05;24.83;;;10.43;;
75732;SDS011;64435;47.424;19.400;2022-12-10T05:41:33;24.25;;;10.07;;
75732;SDS011;64435;47.424;19.400;2022-12-10T05:44:00;24.15;;;9.48;;
75732;SDS011;64435;47.424;19.400;2022-12-10T05:46:28;26.10;;;9.87;;
75732;SDS011;64435;47.424;19.400;2022-12-10T05:48:55;22.55;;;9.43;;
75732;SDS011;64435;47.424;19.400;2022-12-10T05:51:22;21.15;;;8.55;;
75732;SDS011;64435;47.424;19.400;2022-12-10T05:53:50;22.35;;;9.32;;
75732;SDS011;64435;47.424;19.400;2022-12-10T05:56:17;19.80;;;8.77;;
75732;SDS011;64435;47.424;19.400;2022-12-10T05:58:44;21.20;;;8.80;;
75732;SDS011;64435;47.424;19.400;2022-12-10T06:01:18;21.67;;;9.50;;
75732;SDS011;64435;47.424;19.400;2022-12-10T06:03:45;20.77;;;8.25;;
75732;SDS011;64435;47.424;19.400;2022-12-10T06:06:11;22.23;;;9.82;;
75732;SDS011;64435;47.424;19.400;2022-12-10T06:08:37;23.70;;;9.67;;
75732;SDS011;64435;47.424;19.400;2022-12-10T06:11:04;26.25;;;9.80;;
75732;SDS011;64435;47.424;19.400;2022-12-10T06:13:33;19.80;;;8.63;;
75732;SDS011;64435;47.424;19.400;2022-12-10T06:15:58;21.47;;;9.57;;
75732;SDS011;64435;47.424;19.400;2022-12-10T06:18:24;21.53;;;8.87;;
75732;SDS011;64435;47.424;19.400;2022-12-10T06:20:49;21.80;;;9.67;;
75732;SDS011;64435;47.424;19.400;2022-12-10T06:23:15;26.23;;;9.93;;
75732;SDS011;64435;47.424;19.400;2022-12-10T06:25:41;22.40;;;9.93;;
75732;SDS011;64435;47.424;19.400;2022-12-10T06:28:06;22.27;;;9.97;;
75732;SDS011;64435;47.424;19.400;2022-12-10T06:30:32;22.33;;;10.07;;
75732;SDS011;64435;47.424;19.400;2022-12-10T06:32:58;24.75;;;11.00;;
75732;SDS011;64435;47.424;19.400;2022-12-10T06:35:24;25.57;;;11.37;;
75732;SDS011;64435;47.424;19.400;2022-12-10T06:37:49;24.35;;;10.82;;
75732;SDS011;64435;47.424;19.400;2022-12-10T06:40:15;26.83;;;10.83;;
75732;SDS011;64435;47.424;19.400;2022-12-10T06:42:40;24.90;;;10.50;;
75732;SDS011;64435;47.424;19.400;2022-12-10T06:45:06;24.10;;;10.80;;
75732;SDS011;64435;47.424;19.400;2022-12-10T06:47:32;26.92;;;11.40;;
75732;SDS011;64435;47.424;19.400;2022-12-10T06:49:57;24.63;;;11.17;;
75732;SDS011;64435;47.424;19.400;2022-12-10T06:52:23;26.10;;;11.17;;
75732;SDS011;64435;47.424;19.400;2022-12-10T06:54:48;23.27;;;10.73;;
75732;SDS011;64435;47.424;19.400;2022-12-10T06:57:13;28.27;;;11.93;;
75732;SDS011;64435;47.424;19.400;2022-12-10T06:59:39;29.60;;;12.37;;
75732;SDS011;64435;47.424;19.400;2022-12-10T07:02:04;29.20;;;13.20;;
75732;SDS011;64435;47.424;19.400;2022-12-10T07:04:30;33.07;;;13.60;;
75732;SDS011;64435;47.424;19.400;2022-12-10T07:06:55;33.72;;;16.12;;
75732;SDS011;64435;47.424;19.400;2022-12-10T07:09:21;40.47;;;16.60;;
75732;SDS011;64435;47.424;19.400;2022-12-10T07:11:46;37.93;;;16.33;;
75732;SDS011;64435;47.424;19.400;2022-12-10T07:14:15;36.90;;;16.53;;
75732;SDS011;64435;47.424;19.400;2022-12-10T07:16:41;37.30;;;16.10;;
75732;SDS011;64435;47.424;19.400;2022-12-10T07:19:08;37.40;;;16.45;;
75732;SDS011;64435;47.424;19.400;2022-12-10T07:21:34;38.55;;;16.75;;
75732;SDS011;64435;47.424;19.400;2022-12-10T07:24:01;30.12;;;13.70;;
75732;SDS011;64435;47.424;19.400;2022-12-10T07:26:32;31.67;;;13.80;;
75732;SDS011;64435;47.424;19.400;2022-12-10T07:28:59;30.05;;;13.30;;
75732;SDS011;64435;47.424;19.400;2022-12-10T07:31:26;31.70;;;13.05;;
75732;SDS011;64435;47.424;19.400;2022-12-10T07:33:52;29.70;;;13.30;;
75732;SDS011;64435;47.424;19.400;2022-12-10T07:36:18;31.20;;;13.98;;
75732;SDS011;64435;47.424;19.400;2022-12-10T07:38:44;34.58;;;15.95;;
75732;SDS011;64435;47.424;19.400;2022-12-10T07:41:10;35.80;;;14.03;;
75732;SDS011;64435;47.424;19.400;2022-12-10T07:43:37;29.58;;;13.85;;
75732;SDS011;64435;47.424;19.400;2022-12-10T07:46:23;30.42;;;13.32;;
75732;SDS011;64435;47.424;19.400;2022-12-10T07:48:53;24.43;;;11.20;;
75732;SDS011;64435;47.424;19.400;2022-12-10T07:51:19;27.48;;;11.15;;
75732;SDS011;64435;47.424;19.400;2022-12-10T07:53:45;28.62;;;12.65;;
75732;SDS011;64435;47.424;19.400;2022-12-10T07:56:11;28.00;;;12.70;;
75732;SDS011;64435;47.424;19.400;2022-12-10T07:58:36;26.60;;;11.87;;
75732;SDS011;64435;47.424;19.400;2022-12-10T08:01:06;25.40;;;12.77;;
75732;SDS011;64435;47.424;19.400;2022-12-10T08:03:35;25.77;;;11.87;;
75732;SDS011;64435;47.424;19.400;2022-12-10T08:06:04;28.77;;;13.13;;
75732;SDS011;64435;47.424;19.400;2022-12-10T08:08:32;29.50;;;13.65;;
75732;SDS011;64435;47.424;19.400;2022-12-10T08:10:59;30.80;;;14.20;;
75732;SDS011;64435;47.424;19.400;2022-12-10T08:13:25;30.10;;;14.77;;
75732;SDS011;64435;47.424;19.400;2022-12-10T08:15:50;27.33;;;13.10;;
75732;SDS011;64435;47.424;19.400;2022-12-10T08:18:16;26.63;;;13.23;;
75732;SDS011;64435;47.424;19.400;2022-12-10T08:20:41;27.67;;;12.70;;
75732;SDS011;64435;47.424;19.400;2022-12-10T08:23:06;28.43;;;13.53;;
75732;SDS011;64435;47.424;19.400;2022-12-10T08:25:32;28.53;;;13.47;;
75732;SDS011;64435;47.424;19.400;2022-12-10T08:27:57;27.80;;;12.93;;
75732;SDS011;64435;47.424;19.400;2022-12-10T08:30:24;29.93;;;13.47;;
75732;SDS011;64435;47.424;19.400;2022-12-10T08:32:50;32.95;;;15.27;;
75732;SDS011;64435;47.424;19.400;2022-12-10T08:35:15;32.30;;;15.47;;
75732;SDS011;64435;47.424;19.400;2022-12-10T08:37:41;32.33;;;14.23;;
75732;SDS011;64435;47.424;19.400;2022-12-10T08:40:06;33.60;;;14.80;;
75732;SDS011;64435;47.424;19.400;2022-12-10T08:42:32;32.23;;;15.53;;
75732;SDS011;64435;47.424;19.400;2022-12-10T08:44:58;32.07;;;14.70;;
75732;SDS011;64435;47.424;19.400;2022-12-10T08:47:23;29.23;;;13.90;;
75732;SDS011;64435;47.424;19.400;2022-12-10T08:49:48;25.70;;;12.97;;
75732;SDS011;64435;47.424;19.400;2022-12-10T08:52:14;24.17;;;11.57;;
75732;SDS011;64435;47.424;19.400;2022-12-10T08:54:39;22.53;;;10.70;;
75732;SDS011;64435;47.424;19.400;2022-12-10T08:57:04;19.67;;;8.88;;
75732;SDS011;64435;47.424;19.400;2022-12-10T08:59:30;46.00;;;14.93;;
75732;SDS011;64435;47.424;19.400;2022-12-10T09:01:55;27.13;;;10.60;;
75732;SDS011;64435;47.424;19.400;2022-12-10T09:04:21;18.93;;;8.57;;
75732;SDS011;64435;47.424;19.400;2022-12-10T09:06:46;20.77;;;9.20;;
75732;SDS011;64435;47.424;19.400;2022-12-10T09:09:11;20.62;;;9.45;;
75732;SDS011;64435;47.424;19.400;2022-12-10T09:11:37;23.87;;;11.50;;
75732;SDS011;64435;47.424;19.400;2022-12-10T09:14:02;23.93;;;11.13;;
75732;SDS011;64435;47.424;19.400;2022-12-10T09:16:29;28.60;;;12.20;;
75732;SDS011;64435;47.424;19.400;2022-12-10T09:18:55;23.80;;;11.27;;
75732;SDS011;64435;47.424;19.400;2022-12-10T09:21:21;27.53;;;13.10;;
75732;SDS011;64435;47.424;19.400;2022-12-10T09:23:46;27.53;;;12.57;;
75732;SDS011;64435;47.424;19.400;2022-12-10T09:26:13;29.67;;;13.87;;
75732;SDS011;64435;47.424;19.400;2022-12-10T09:28:40;30.00;;;14.35;;
75732;SDS011;64435;47.424;19.400;2022-12-10T09:31:06;36.20;;;16.95;;
75732;SDS011;64435;47.424;19.400;2022-12-10T09:33:32;31.30;;;14.97;;
75732;SDS011;64435;47.424;19.400;2022-12-10T09:35:57;30.42;;;14.38;;
75732;SDS011;64435;47.424;19.400;2022-12-10T09:38:23;34.73;;;17.53;;
75732;SDS011;64435;47.424;19.400;2022-12-10T09:41:02;64.27;;;29.60;;
75732;SDS011;64435;47.424;19.400;2022-12-10T09:43:46;41.30;;;20.67;;
75732;SDS011;64435;47.424;19.400;2022-12-10T09:46:19;45.83;;;22.08;;
75732;SDS011;64435;47.424;19.400;2022-12-10T09:51:57;24.80;;;11.60;;
75732;SDS011;64435;47.424;19.400;2022-12-10T09:54:26;31.05;;;15.32;;
75732;SDS011;64435;47.424;19.400;2022-12-10T09:57:04;30.23;;;13.37;;
75732;SDS011;64435;47.424;19.400;2022-12-10T10:02:25;28.20;;;13.15;;
75732;SDS011;64435;47.424;19.400;2022-12-10T10:04:49;35.72;;;18.37;;
75732;SDS011;64435;47.424;19.400;2022-12-10T10:07:20;22.95;;;10.98;;
75732;SDS011;64435;47.424;19.400;2022-12-10T10:09:48;23.77;;;11.17;;
75732;SDS011;64435;47.424;19.400;2022-12-10T10:12:14;25.98;;;11.82;;
75732;SDS011;64435;47.424;19.400;2022-12-10T10:14:41;23.80;;;11.40;;
75732;SDS011;64435;47.424;19.400;2022-12-10T10:17:09;25.40;;;13.32;;
75732;SDS011;64435;47.424;19.400;2022-12-10T10:19:39;86.63;;;43.63;;
75732;SDS011;64435;47.424;19.400;2022-12-10T10:22:06;67.80;;;31.70;;
75732;SDS011;64435;47.424;19.400;2022-12-10T10:24:37;33.95;;;16.48;;
75732;SDS011;64435;47.424;19.400;2022-12-10T10:27:13;34.67;;;19.10;;
75732;SDS011;64435;47.424;19.400;2022-12-10T10:29:41;43.55;;;24.73;;
75732;SDS011;64435;47.424;19.400;2022-12-10T10:32:24;29.50;;;15.63;;
75732;SDS011;64435;47.424;19.400;2022-12-10T10:34:54;34.25;;;15.52;;
75732;SDS011;64435;47.424;19.400;2022-12-10T10:37:31;31.98;;;15.25;;
75732;SDS011;64435;47.424;19.400;2022-12-10T10:40:05;32.17;;;15.20;;
75732;SDS011;64435;47.424;19.400;2022-12-10T10:42:34;27.02;;;14.60;;
75732;SDS011;64435;47.424;19.400;2022-12-10T10:45:02;25.83;;;14.60;;
75732;SDS011;64435;47.424;19.400;2022-12-10T10:47:34;21.37;;;11.65;;
75732;SDS011;64435;47.424;19.400;2022-12-10T10:50:03;26.00;;;11.77;;
75732;SDS011;64435;47.424;19.400;2022-12-10T10:52:30;21.90;;;10.52;;
75732;SDS011;64435;47.424;19.400;2022-12-10T10:55:00;24.42;;;12.52;;
75732;SDS011;64435;47.424;19.400;2022-12-10T10:57:35;27.43;;;13.60;;
75732;SDS011;64435;47.424;19.400;2022-12-10T11:00:18;22.75;;;12.07;;
75732;SDS011;64435;47.424;19.400;2022-12-10T11:02:47;38.63;;;24.60;;
75732;SDS011;64435;47.424;19.400;2022-12-10T11:05:23;25.50;;;13.32;;
75732;SDS011;64435;47.424;19.400;2022-12-10T11:08:04;21.10;;;10.25;;
75732;SDS011;64435;47.424;19.400;2022-12-10T11:10:32;20.80;;;11.07;;
75732;SDS011;64435;47.424;19.400;2022-12-10T11:12:59;21.50;;;11.23;;
75732;SDS011;64435;47.424;19.400;2022-12-10T11:15:38;21.75;;;11.18;;
75732;SDS011;64435;47.424;19.400;2022-12-10T11:20:56;26.13;;;13.20;;
75732;SDS011;64435;47.424;19.400;2022-12-10T11:23:26;22.92;;;11.73;;
75732;SDS011;64435;47.424;19.400;2022-12-10T11:26:39;26.15;;;13.48;;
75732;SDS011;64435;47.424;19.400;2022-12-10T11:28:49;22.33;;;10.88;;
75732;SDS011;64435;47.424;19.400;2022-12-10T11:37:31;20.50;;;9.23;;
75732;SDS011;64435;47.424;19.400;2022-12-10T11:51:05;28.95;;;14.87;;
75732;SDS011;64435;47.424;19.400;2022-12-10T11:56:40;25.67;;;10.75;;
75732;SDS011;64435;47.424;19.400;2022-12-10T12:04:28;25.45;;;11.12;;
75732;SDS011;64435;47.424;19.400;2022-12-10T12:09:42;32.20;;;13.57;;
75732;SDS011;64435;47.424;19.400;2022-12-10T12:12:34;34.83;;;15.55;;
75732;SDS011;64435;47.424;19.400;2022-12-10T12:15:04;41.10;;;17.00;;
75732;SDS011;64435;47.424;19.400;2022-12-10T12:18:40;62.85;;;27.23;;
75732;SDS011;64435;47.424;19.400;2022-12-10T12:21:10;42.60;;;18.77;;
75732;SDS011;64435;47.424;19.400;2022-12-10T12:23:41;32.55;;;14.60;;
75732;SDS011;64435;47.424;19.400;2022-12-10T12:26:17;29.17;;;12.45;;
75732;SDS011;64435;47.424;19.400;2022-12-10T12:28:45;36.63;;;15.95;;
75732;SDS011;64435;47.424;19.400;2022-12-10T12:31:14;32.13;;;15.13;;
75732;SDS011;64435;47.424;19.400;2022-12-10T12:33:45;28.13;;;13.83;;
75732;SDS011;64435;47.424;19.400;2022-12-10T12:36:16;36.08;;;15.57;;
75732;SDS011;64435;47.424;19.400;2022-12-10T12:38:59;24.83;;;12.20;;
75732;SDS011;64435;47.424;19.400;2022-12-10T12:41:36;27.65;;;13.30;;
75732;SDS011;64435;47.424;19.400;2022-12-10T12:44:52;27.90;;;13.15;;
75732;SDS011;64435;47.424;19.400;2022-12-10T12:50:10;29.00;;;13.85;;
75732;SDS011;64435;47.424;19.400;2022-12-10T12:53:00;30.05;;;14.48;;
75732;SDS011;64435;47.424;19.400;2022-12-10T12:55:39;23.08;;;11.57;;
75732;SDS011;64435;47.424;19.400;2022-12-10T12:58:13;25.92;;;12.45;;
75732;SDS011;64435;47.424;19.400;2022-12-10T13:00:43;26.23;;;11.10;;
75732;SDS011;64435;47.424;19.400;2022-12-10T13:11:18;23.62;;;10.68;;
75732;SDS011;64435;47.424;19.400;2022-12-10T13:24:15;37.10;;;15.25;;
75732;SDS011;64435;47.424;19.400;2022-12-10T13:32:18;48.65;;;22.67;;
75732;SDS011;64435;47.424;19.400;2022-12-10T13:42:34;52.80;;;26.67;;
75732;SDS011;64435;47.424;19.400;2022-12-10T13:45:27;45.77;;;20.70;;
75732;SDS011;64435;47.424;19.400;2022-12-10T13:51:11;31.60;;;14.50;;
75732;SDS011;64435;47.424;19.400;2022-12-10T13:53:57;36.70;;;15.45;;
75732;SDS011;64435;47.424;19.400;2022-12-10T13:56:43;30.92;;;14.23;;
75732;SDS011;64435;47.424;19.400;2022-12-10T13:59:56;29.73;;;14.50;;
75732;SDS011;64435;47.424;19.400;2022-12-10T14:07:55;32.78;;;14.50;;
75732;SDS011;64435;47.424;19.400;2022-12-10T14:10:24;31.33;;;13.35;;
75732;SDS011;64435;47.424;19.400;2022-12-10T14:12:53;32.43;;;14.13;;
75732;SDS011;64435;47.424;19.400;2022-12-10T14:15:27;26.42;;;12.82;;
75732;SDS011;64435;47.424;19.400;2022-12-10T14:17:57;29.05;;;14.18;;
75732;SDS011;64435;47.424;19.400;2022-12-10T14:20:27;31.57;;;13.57;;
75732;SDS011;64435;47.424;19.400;2022-12-10T14:22:56;33.03;;;13.35;;
75732;SDS011;64435;47.424;19.400;2022-12-10T14:25:45;31.67;;;14.77;;
75732;SDS011;64435;47.424;19.400;2022-12-10T14:28:12;32.03;;;15.23;;
75732;SDS011;64435;47.424;19.400;2022-12-10T14:30:42;33.67;;;15.40;;
75732;SDS011;64435;47.424;19.400;2022-12-10T14:33:13;27.73;;;13.40;;
75732;SDS011;64435;47.424;19.400;2022-12-10T14:35:41;28.45;;;13.77;;
75732;SDS011;64435;47.424;19.400;2022-12-10T14:38:12;23.17;;;11.00;;
75732;SDS011;64435;47.424;19.400;2022-12-10T14:40:52;24.98;;;11.65;;
75732;SDS011;64435;47.424;19.400;2022-12-10T14:43:19;26.27;;;12.33;;
75732;SDS011;64435;47.424;19.400;2022-12-10T14:45:48;25.33;;;12.68;;
75732;SDS011;64435;47.424;19.400;2022-12-10T14:48:16;26.48;;;12.68;;
75732;SDS011;64435;47.424;19.400;2022-12-10T14:50:42;27.87;;;13.27;;
75732;SDS011;64435;47.424;19.400;2022-12-10T14:53:16;34.72;;;16.52;;
75732;SDS011;64435;47.424;19.400;2022-12-10T14:55:45;28.67;;;13.50;;
75732;SDS011;64435;47.424;19.400;2022-12-10T14:58:18;31.20;;;15.55;;
75732;SDS011;64435;47.424;19.400;2022-12-10T15:00:51;36.15;;;14.45;;
75732;SDS011;64435;47.424;19.400;2022-12-10T15:03:23;35.43;;;17.87;;
75732;SDS011;64435;47.424;19.400;2022-12-10T15:05:55;34.50;;;17.70;;
75732;SDS011;64435;47.424;19.400;2022-12-10T15:08:22;35.42;;;16.80;;
75732;SDS011;64435;47.424;19.400;2022-12-10T15:10:50;31.77;;;16.15;;
75732;SDS011;64435;47.424;19.400;2022-12-10T15:13:39;32.97;;;15.93;;
75732;SDS011;64435;47.424;19.400;2022-12-10T15:16:04;31.67;;;15.27;;
75732;SDS011;64435;47.424;19.400;2022-12-10T15:18:32;27.25;;;12.80;;
75732;SDS011;64435;47.424;19.400;2022-12-10T15:21:10;26.45;;;12.43;;
75732;SDS011;64435;47.424;19.400;2022-12-10T15:24:41;25.10;;;12.15;;
75732;SDS011;64435;47.424;19.400;2022-12-10T15:26:45;26.37;;;12.90;;
75732;SDS011;64435;47.424;19.400;2022-12-10T15:31:46;24.70;;;12.80;;
75732;SDS011;64435;47.424;19.400;2022-12-10T15:34:12;24.33;;;11.13;;
75732;SDS011;64435;47.424;19.400;2022-12-10T15:36:42;25.10;;;11.85;;
75732;SDS011;64435;47.424;19.400;2022-12-10T15:39:28;26.95;;;12.48;;
75732;SDS011;64435;47.424;19.400;2022-12-10T15:41:57;29.63;;;13.27;;
75732;SDS011;64435;47.424;19.400;2022-12-10T15:49:43;29.02;;;14.68;;
75732;SDS011;64435;47.424;19.400;2022-12-10T15:52:14;17.20;;;8.00;;
75732;SDS011;64435;47.424;19.400;2022-12-10T15:54:40;21.98;;;10.23;;
75732;SDS011;64435;47.424;19.400;2022-12-10T15:57:17;24.63;;;11.60;;
75732;SDS011;64435;47.424;19.400;2022-12-10T15:59:47;26.15;;;12.30;;
75732;SDS011;64435;47.424;19.400;2022-12-10T16:05:01;23.23;;;10.98;;